Time;durP1;ratioP1;P1;durP2;ratioP2;P2;SDS_P1;SDS_P2;PMS_P1;PMS_P2;Temp;Humidity;BMP_temperature;BMP_pressure;BME280_temperature;BME280_humidity;BME280_pressure;Samples;Min_cycle;Max_cycle;Signal;HPM_P1;HPM_P2
2023/06/28 00:01:22;;;;;;;18.95;2.90;;;;;;;;;;5036499;28;20078;-50
2023/06/28 00:03:49;;;;;;;20.10;3.10;;;;;;;;;;5038916;28;20045;-57
2023/06/28 00:06:17;;;;;;;17.27;3.30;;;;;;;;;;5048351;28;20071;-49
2023/06/28 00:08:43;;;;;;;21.10;3.58;;;;;;;;;;5050616;28;20025;-58
2023/06/28 00:11:11;;;;;;;23.55;3.65;;;;;;;;;;5053144;28;20033;-55
2023/06/28 00:13:38;;;;;;;20.55;3.72;;;;;;;;;;5052885;28;20025;-49
2023/06/28 00:16:05;;;;;;;17.90;3.15;;;;;;;;;;5053302;28;20375;-57
2023/06/28 00:18:33;;;;;;;21.48;3.70;;;;;;;;;;5052717;28;20025;-57
2023/06/28 00:21:01;;;;;;;19.98;3.78;;;;;;;;;;5052567;28;20041;-52
2023/06/28 00:23:28;;;;;;;18.88;3.97;;;;;;;;;;5052645;28;20060;-57
2023/06/28 00:25:55;;;;;;;16.67;3.85;;;;;;;;;;5040035;28;20034;-54
2023/06/28 00:28:22;;;;;;;17.67;3.83;;;;;;;;;;5052365;28;20880;-57
2023/06/28 00:30:49;;;;;;;19.17;3.58;;;;;;;;;;5051768;28;20418;-51
2023/06/28 00:33:19;;;;;;;18.13;3.95;;;;;;;;;;5033003;28;20053;-48
2023/06/28 00:35:50;;;;;;;18.63;4.13;;;;;;;;;;5051221;28;20041;-58
2023/06/28 00:38:17;;;;;;;19.77;3.92;;;;;;;;;;5052368;28;20087;-54
2023/06/28 00:40:44;;;;;;;18.55;4.38;;;;;;;;;;5052781;28;20536;-58
2023/06/28 00:43:11;;;;;;;17.88;4.22;;;;;;;;;;5046246;28;20082;-60
2023/06/28 00:45:38;;;;;;;22.35;3.90;;;;;;;;;;5044767;28;20048;-62
2023/06/28 00:48:06;;;;;;;22.80;3.90;;;;;;;;;;5036797;28;20478;-61
2023/06/28 00:50:33;;;;;;;20.25;4.05;;;;;;;;;;5041322;28;20025;-62
2023/06/28 00:53:00;;;;;;;22.45;3.60;;;;;;;;;;5032393;28;20391;-61
2023/06/28 00:55:27;;;;;;;21.35;3.95;;;;;;;;;;5031996;28;20106;-61
2023/06/28 00:57:54;;;;;;;16.90;3.70;;;;;;;;;;5032236;28;20033;-60
2023/06/28 01:00:21;;;;;;;15.68;3.40;;;;;;;;;;5032200;28;20052;-59
2023/06/28 01:02:48;;;;;;;21.20;4.28;;;;;;;;;;5031242;28;20037;-55
2023/06/28 01:05:19;;;;;;;13.68;3.45;;;;;;;;;;5031394;28;20552;-54
2023/06/28 01:07:48;;;;;;;14.07;3.60;;;;;;;;;;5032095;28;20056;-60
2023/06/28 01:10:17;;;;;;;16.00;3.60;;;;;;;;;;5031916;28;20383;-57
2023/06/28 01:12:44;;;;;;;16.70;3.40;;;;;;;;;;5032175;28;20383;-59
2023/06/28 01:15:12;;;;;;;12.98;3.20;;;;;;;;;;5034366;28;20034;-59
2023/06/28 01:17:39;;;;;;;17.90;3.35;;;;;;;;;;5032172;28;20037;-58
2023/06/28 01:20:06;;;;;;;20.75;3.88;;;;;;;;;;5039811;28;20045;-61
2023/06/28 01:22:33;;;;;;;18.33;3.70;;;;;;;;;;5035843;28;20049;-61
2023/06/28 01:25:01;;;;;;;15.90;3.03;;;;;;;;;;5041395;28;20061;-58
2023/06/28 01:27:28;;;;;;;19.30;3.38;;;;;;;;;;5039674;28;20085;-60
2023/06/28 01:29:57;;;;;;;15.40;3.22;;;;;;;;;;5040329;28;20095;-61
2023/06/28 01:32:24;;;;;;;21.35;3.60;;;;;;;;;;5044836;28;20116;-57
2023/06/28 01:34:52;;;;;;;13.85;3.00;;;;;;;;;;5043916;28;20052;-61
2023/06/28 01:37:22;;;;;;;15.90;3.15;;;;;;;;;;5051089;28;20041;-59
2023/06/28 01:39:49;;;;;;;20.67;3.47;;;;;;;;;;5038744;28;20053;-61
2023/06/28 01:42:16;;;;;;;22.77;4.07;;;;;;;;;;5044344;28;20021;-57
2023/06/28 01:44:43;;;;;;;21.85;3.38;;;;;;;;;;5031522;28;20068;-61
2023/06/28 01:47:11;;;;;;;21.80;3.10;;;;;;;;;;5044389;28;20696;-57
2023/06/28 01:49:38;;;;;;;16.35;2.63;;;;;;;;;;5031249;28;20547;-57
2023/06/28 01:52:05;;;;;;;16.88;3.30;;;;;;;;;;5031579;28;20029;-57
2023/06/28 01:54:33;;;;;;;17.20;3.08;;;;;;;;;;5031351;28;20013;-61
2023/06/28 01:57:00;;;;;;;17.35;2.92;;;;;;;;;;5041932;28;20519;-57
2023/06/28 01:59:28;;;;;;;16.20;3.33;;;;;;;;;;5050141;28;20033;-58
2023/06/28 02:01:55;;;;;;;11.23;2.90;;;;;;;;;;5041986;28;20025;-59
2023/06/28 02:04:22;;;;;;;11.50;2.70;;;;;;;;;;5046627;28;20029;-57
2023/06/28 02:06:49;;;;;;;19.80;3.00;;;;;;;;;;5042966;28;20033;-59
2023/06/28 02:09:16;;;;;;;15.90;2.72;;;;;;;;;;5041444;28;20067;-59
2023/06/28 02:11:43;;;;;;;12.93;2.88;;;;;;;;;;5041203;28;20454;-55
2023/06/28 02:14:10;;;;;;;16.65;2.67;;;;;;;;;;5042233;28;20029;-60
2023/06/28 02:16:37;;;;;;;14.20;3.00;;;;;;;;;;5045582;28;20546;-55
2023/06/28 02:19:04;;;;;;;11.20;2.60;;;;;;;;;;5050315;28;20051;-60
2023/06/28 02:21:31;;;;;;;10.80;2.33;;;;;;;;;;5048694;28;20044;-56
2023/06/28 02:23:58;;;;;;;7.68;2.45;;;;;;;;;;5050517;28;20096;-59
2023/06/28 02:26:25;;;;;;;20.05;2.53;;;;;;;;;;5050699;28;20036;-56
2023/06/28 02:28:52;;;;;;;12.25;2.53;;;;;;;;;;5050506;28;20021;-59
2023/06/28 02:31:19;;;;;;;12.82;2.70;;;;;;;;;;5050388;28;20118;-59
2023/06/28 02:33:46;;;;;;;10.13;2.60;;;;;;;;;;5050601;28;20064;-60
2023/06/28 02:36:14;;;;;;;12.40;2.35;;;;;;;;;;5048239;28;20025;-57
2023/06/28 02:38:41;;;;;;;9.23;2.10;;;;;;;;;;5050637;28;20364;-59
2023/06/28 02:41:08;;;;;;;6.80;2.03;;;;;;;;;;5050979;28;20039;-56
2023/06/28 02:43:35;;;;;;;9.07;2.40;;;;;;;;;;5051321;28;20021;-57
2023/06/28 02:46:02;;;;;;;8.32;2.00;;;;;;;;;;5051512;28;20390;-57
2023/06/28 02:48:29;;;;;;;11.38;2.40;;;;;;;;;;5050989;28;20020;-56
2023/06/28 02:50:56;;;;;;;8.50;2.15;;;;;;;;;;5051257;28;20097;-57
2023/06/28 02:53:23;;;;;;;9.70;1.88;;;;;;;;;;5050003;28;20025;-55
2023/06/28 02:55:50;;;;;;;9.90;2.05;;;;;;;;;;5051076;28;20406;-57
2023/06/28 02:58:17;;;;;;;6.22;1.80;;;;;;;;;;5051041;28;20029;-57
2023/06/28 03:00:46;;;;;;;5.35;1.95;;;;;;;;;;5050704;28;20045;-56
2023/06/28 03:03:14;;;;;;;6.28;2.05;;;;;;;;;;5051028;28;20021;-57
2023/06/28 03:05:41;;;;;;;6.68;1.85;;;;;;;;;;5050968;28;20376;-57
2023/06/28 03:08:08;;;;;;;6.82;1.80;;;;;;;;;;5051007;28;20418;-55
2023/06/28 03:10:35;;;;;;;5.95;1.85;;;;;;;;;;5051044;28;20029;-57
2023/06/28 03:13:02;;;;;;;6.82;1.77;;;;;;;;;;5050928;28;20028;-56
2023/06/28 03:15:29;;;;;;;4.53;2.05;;;;;;;;;;5050988;28;20028;-55
2023/06/28 03:17:56;;;;;;;8.00;2.13;;;;;;;;;;5050958;28;20096;-55
2023/06/28 03:20:25;;;;;;;4.72;1.63;;;;;;;;;;5050844;28;20029;-56
2023/06/28 03:22:52;;;;;;;7.13;1.50;;;;;;;;;;5050703;28;20053;-57
2023/06/28 03:25:19;;;;;;;4.18;1.38;;;;;;;;;;5051007;28;20432;-57
2023/06/28 03:27:46;;;;;;;4.65;1.50;;;;;;;;;;5053216;28;20044;-55
2023/06/28 03:30:13;;;;;;;3.72;1.50;;;;;;;;;;5054526;28;20028;-57
2023/06/28 03:32:40;;;;;;;5.25;1.58;;;;;;;;;;5054560;28;20024;-56
2023/06/28 03:35:07;;;;;;;6.93;1.75;;;;;;;;;;5054476;28;20045;-57
2023/06/28 03:37:34;;;;;;;5.03;1.50;;;;;;;;;;5054414;28;20029;-55
2023/06/28 03:40:02;;;;;;;3.10;1.40;;;;;;;;;;5054239;28;20059;-56
2023/06/28 03:42:29;;;;;;;5.18;1.30;;;;;;;;;;5054325;28;20047;-55
2023/06/28 03:44:56;;;;;;;5.85;1.35;;;;;;;;;;5054321;28;20390;-56
2023/06/28 03:47:23;;;;;;;2.83;1.23;;;;;;;;;;5054250;28;20033;-55
2023/06/28 03:49:50;;;;;;;5.30;1.25;;;;;;;;;;5054122;28;20028;-56
2023/06/28 03:52:17;;;;;;;2.95;1.27;;;;;;;;;;5054229;28;20494;-56
2023/06/28 03:54:44;;;;;;;4.25;1.27;;;;;;;;;;5054052;28;20021;-54
2023/06/28 03:57:11;;;;;;;5.28;1.35;;;;;;;;;;5054031;28;20021;-57
2023/06/28 03:59:38;;;;;;;3.05;1.20;;;;;;;;;;5072162;28;20040;-57
2023/06/28 04:02:05;;;;;;;3.35;1.20;;;;;;;;;;5073998;28;20024;-56
2023/06/28 04:04:33;;;;;;;3.05;1.20;;;;;;;;;;5074005;28;20024;-56
2023/06/28 04:07:01;;;;;;;3.83;1.30;;;;;;;;;;5073675;28;20035;-56
2023/06/28 04:09:28;;;;;;;5.00;1.20;;;;;;;;;;5073711;28;20040;-56
2023/06/28 04:11:55;;;;;;;3.90;1.15;;;;;;;;;;5073760;28;20024;-60
2023/06/28 04:14:24;;;;;;;3.58;1.30;;;;;;;;;;5073743;28;20021;-55
2023/06/28 04:16:51;;;;;;;2.97;1.02;;;;;;;;;;5073732;28;20024;-56
2023/06/28 04:19:19;;;;;;;2.38;1.10;;;;;;;;;;5073471;28;20060;-56
2023/06/28 04:21:46;;;;;;;3.22;0.93;;;;;;;;;;5073433;28;20528;-55
2023/06/28 04:24:13;;;;;;;3.28;1.00;;;;;;;;;;5073559;28;20124;-56
2023/06/28 04:26:40;;;;;;;3.20;1.00;;;;;;;;;;5073563;28;20515;-55
2023/06/28 04:29:07;;;;;;;5.50;1.05;;;;;;;;;;5073342;28;20585;-55
2023/06/28 04:31:34;;;;;;;3.17;0.88;;;;;;;;;;5073440;28;20079;-56
2023/06/28 04:34:01;;;;;;;4.28;1.00;;;;;;;;;;5073393;28;20023;-56
2023/06/28 04:36:28;;;;;;;2.85;1.13;;;;;;;;;;5073314;28;20040;-55
2023/06/28 04:38:56;;;;;;;3.38;1.10;;;;;;;;;;5073062;28;20095;-55
2023/06/28 04:41:24;;;;;;;3.63;1.00;;;;;;;;;;5073112;28;20095;-56
2023/06/28 04:43:55;;;;;;;3.53;1.10;;;;;;;;;;5073077;28;20028;-55
2023/06/28 04:46:23;;;;;;;1.98;1.10;;;;;;;;;;5073006;28;20493;-55
2023/06/28 04:48:50;;;;;;;1.35;1.00;;;;;;;;;;5073050;28;20486;-56
2023/06/28 04:51:18;;;;;;;2.08;0.82;;;;;;;;;;5072967;28;20040;-56
2023/06/28 04:53:45;;;;;;;2.70;0.90;;;;;;;;;;5072972;28;20028;-56
2023/06/28 04:56:12;;;;;;;3.58;1.08;;;;;;;;;;5072905;28;20024;-57
2023/06/28 04:58:39;;;;;;;4.13;1.08;;;;;;;;;;5072752;28;20501;-56
2023/06/28 05:01:07;;;;;;;1.80;0.73;;;;;;;;;;5072789;28;20059;-55
2023/06/28 05:03:35;;;;;;;1.98;0.80;;;;;;;;;;5072705;28;20033;-56
2023/06/28 05:06:03;;;;;;;1.90;0.90;;;;;;;;;;5072721;28;20024;-56
2023/06/28 05:08:30;;;;;;;2.03;0.93;;;;;;;;;;5072539;28;20053;-56
2023/06/28 05:10:56;;;;;;;1.35;0.80;;;;;;;;;;5072653;28;20025;-55
2023/06/28 05:13:23;;;;;;;2.55;0.90;;;;;;;;;;5072607;28;20017;-56
2023/06/28 05:15:50;;;;;;;2.15;0.80;;;;;;;;;;5072559;28;20016;-55
2023/06/28 05:18:18;;;;;;;1.83;0.80;;;;;;;;;;5072411;28;20095;-56
2023/06/28 05:20:45;;;;;;;1.45;0.70;;;;;;;;;;5072339;28;20032;-56
2023/06/28 05:23:23;;;;;;;2.63;0.60;;;;;;;;;;5072289;28;20074;-56
2023/06/28 05:25:50;;;;;;;2.95;0.90;;;;;;;;;;5072357;28;20024;-52
2023/06/28 05:28:17;;;;;;;1.50;0.70;;;;;;;;;;5072208;28;20386;-56
2023/06/28 05:30:45;;;;;;;1.83;0.77;;;;;;;;;;5072167;28;20098;-56
2023/06/28 05:33:12;;;;;;;1.92;0.68;;;;;;;;;;5072270;28;20575;-56
2023/06/28 05:35:39;;;;;;;1.48;0.77;;;;;;;;;;5072141;28;20020;-57
2023/06/28 05:38:07;;;;;;;2.05;0.90;;;;;;;;;;5071990;28;20035;-55
2023/06/28 05:40:34;;;;;;;2.97;1.00;;;;;;;;;;5071926;28;20095;-57
2023/06/28 05:43:01;;;;;;;1.55;0.55;;;;;;;;;;5071941;28;20023;-56
2023/06/28 05:45:30;;;;;;;1.20;0.63;;;;;;;;;;5072012;28;20020;-56
2023/06/28 05:47:58;;;;;;;1.60;0.70;;;;;;;;;;5070486;28;20490;-60
2023/06/28 05:50:25;;;;;;;2.40;0.75;;;;;;;;;;5071572;28;20031;-60
2023/06/28 05:52:52;;;;;;;1.20;0.60;;;;;;;;;;5071881;28;20050;-60
2023/06/28 05:55:19;;;;;;;1.33;0.75;;;;;;;;;;5071850;28;20513;-60
2023/06/28 05:57:47;;;;;;;1.70;0.70;;;;;;;;;;5071760;28;20024;-60
2023/06/28 06:00:14;;;;;;;1.45;0.60;;;;;;;;;;5071797;28;20078;-60
2023/06/28 06:02:41;;;;;;;2.20;0.70;;;;;;;;;;5053968;28;20536;-60
2023/06/28 06:05:08;;;;;;;1.25;0.60;;;;;;;;;;5051679;28;20075;-60
2023/06/28 06:07:39;;;;;;;1.20;0.60;;;;;;;;;;5051807;28;20025;-60
2023/06/28 06:10:06;;;;;;;1.27;0.60;;;;;;;;;;5051478;28;21189;-60
2023/06/28 06:12:33;;;;;;;2.20;0.70;;;;;;;;;;5051678;28;20017;-60
2023/06/28 06:15:01;;;;;;;1.40;0.50;;;;;;;;;;5051623;28;20029;-60
2023/06/28 06:17:28;;;;;;;1.35;0.60;;;;;;;;;;5051608;28;20021;-60
2023/06/28 06:19:55;;;;;;;1.60;0.60;;;;;;;;;;5051495;28;20518;-60
2023/06/28 06:22:21;;;;;;;1.77;0.63;;;;;;;;;;5051248;28;20045;-60
2023/06/28 06:24:48;;;;;;;2.03;0.75;;;;;;;;;;5051602;28;20029;-60
2023/06/28 06:27:15;;;;;;;0.88;0.50;;;;;;;;;;5051439;28;20025;-60
2023/06/28 06:29:42;;;;;;;1.10;0.45;;;;;;;;;;5051365;28;20395;-60
2023/06/28 06:32:09;;;;;;;1.45;0.52;;;;;;;;;;5051479;28;20486;-60
2023/06/28 06:34:36;;;;;;;1.35;0.65;;;;;;;;;;5051458;28;20483;-60
2023/06/28 06:37:04;;;;;;;3.85;0.60;;;;;;;;;;5051429;28;20494;-60
2023/06/28 06:39:32;;;;;;;0.90;0.50;;;;;;;;;;5051223;28;20068;-60
2023/06/28 06:41:58;;;;;;;1.35;0.70;;;;;;;;;;5051356;28;20025;-60
2023/06/28 06:44:26;;;;;;;1.30;0.57;;;;;;;;;;5051365;28;20383;-60
2023/06/28 06:46:53;;;;;;;1.33;0.60;;;;;;;;;;5051289;28;20420;-60
2023/06/28 06:49:20;;;;;;;1.73;0.60;;;;;;;;;;5050974;28;20116;-60
2023/06/28 06:51:47;;;;;;;1.08;0.52;;;;;;;;;;5051346;28;20487;-60
2023/06/28 06:54:14;;;;;;;1.92;0.60;;;;;;;;;;5051311;28;20100;-60
2023/06/28 06:56:41;;;;;;;1.02;0.55;;;;;;;;;;5051254;28;20025;-60
2023/06/28 06:59:08;;;;;;;1.45;0.60;;;;;;;;;;5051061;28;20017;-60
2023/06/28 07:01:35;;;;;;;1.73;0.47;;;;;;;;;;5051700;28;20017;-60
2023/06/28 07:04:02;;;;;;;0.75;0.40;;;;;;;;;;5055029;28;20051;-60
2023/06/28 07:06:29;;;;;;;1.70;0.60;;;;;;;;;;5053745;28;20029;-60
2023/06/28 07:08:57;;;;;;;1.27;0.40;;;;;;;;;;5054975;28;20039;-60
2023/06/28 07:11:25;;;;;;;0.50;0.38;;;;;;;;;;5054778;28;20047;-60
2023/06/28 07:13:52;;;;;;;1.50;0.47;;;;;;;;;;5054780;28;20037;-60
2023/06/28 07:16:19;;;;;;;1.02;0.40;;;;;;;;;;5054742;28;20040;-60
2023/06/28 07:18:46;;;;;;;0.70;0.40;;;;;;;;;;5054770;28;20025;-60
2023/06/28 07:21:14;;;;;;;0.60;0.30;;;;;;;;;;5054558;28;20490;-60
2023/06/28 07:23:41;;;;;;;1.50;0.60;;;;;;;;;;5054357;28;20075;-60
2023/06/28 07:26:08;;;;;;;0.80;0.50;;;;;;;;;;5054700;28;20025;-60
2023/06/28 07:28:35;;;;;;;0.65;0.40;;;;;;;;;;5054488;28;20074;-60
2023/06/28 07:31:02;;;;;;;0.98;0.50;;;;;;;;;;5054590;28;20028;-60
2023/06/28 07:33:29;;;;;;;1.13;0.60;;;;;;;;;;5054598;28;20032;-60
2023/06/28 07:35:56;;;;;;;0.95;0.60;;;;;;;;;;5054307;28;20025;-60
2023/06/28 07:38:23;;;;;;;0.98;0.40;;;;;;;;;;5054251;28;20070;-60
2023/06/28 07:40:51;;;;;;;1.00;0.50;;;;;;;;;;5054177;28;20469;-60
2023/06/28 07:43:19;;;;;;;1.35;0.30;;;;;;;;;;5054214;28;20052;-60
2023/06/28 07:45:46;;;;;;;1.73;0.50;;;;;;;;;;5054320;28;20029;-60
2023/06/28 07:48:13;;;;;;;0.60;0.43;;;;;;;;;;5054162;28;20078;-60
2023/06/28 07:50:40;;;;;;;0.60;0.40;;;;;;;;;;5054181;28;20029;-57
2023/06/28 07:53:07;;;;;;;0.55;0.40;;;;;;;;;;5054181;28;20108;-56
2023/06/28 07:55:34;;;;;;;1.25;0.40;;;;;;;;;;5054160;28;20021;-57
2023/06/28 07:58:01;;;;;;;1.42;0.40;;;;;;;;;;5053938;28;20028;-56
2023/06/28 08:00:28;;;;;;;1.08;0.40;;;;;;;;;;5054046;28;20096;-56
2023/06/28 08:02:55;;;;;;;0.47;0.40;;;;;;;;;;5053952;28;20025;-56
2023/06/28 08:05:23;;;;;;;0.40;0.28;;;;;;;;;;5053973;28;20031;-57
2023/06/28 08:07:50;;;;;;;1.10;0.40;;;;;;;;;;5053784;28;20115;-56
2023/06/28 08:10:17;;;;;;;0.93;0.30;;;;;;;;;;5053869;28;20039;-57
2023/06/28 08:12:44;;;;;;;1.38;0.40;;;;;;;;;;5053533;28;20033;-56
2023/06/28 08:15:11;;;;;;;0.40;0.30;;;;;;;;;;5053731;28;20079;-54
2023/06/28 08:17:38;;;;;;;0.32;0.25;;;;;;;;;;5053680;28;20024;-56
2023/06/28 08:20:05;;;;;;;0.85;0.38;;;;;;;;;;5053641;28;20041;-56
2023/06/28 08:22:32;;;;;;;0.85;0.30;;;;;;;;;;5053497;28;20057;-56
2023/06/28 08:24:59;;;;;;;0.30;0.22;;;;;;;;;;5053647;28;20112;-56
2023/06/28 08:27:26;;;;;;;0.30;0.30;;;;;;;;;;5053516;28;20040;-56
2023/06/28 08:29:53;;;;;;;0.88;0.40;;;;;;;;;;5053378;28;20033;-56
2023/06/28 08:32:20;;;;;;;0.65;0.30;;;;;;;;;;5053465;28;20028;-56
2023/06/28 08:34:47;;;;;;;0.65;0.30;;;;;;;;;;5053381;28;20029;-56
2023/06/28 08:37:14;;;;;;;1.27;0.40;;;;;;;;;;5053307;28;20025;-56
2023/06/28 08:39:41;;;;;;;0.85;0.30;;;;;;;;;;5053105;28;20033;-56
2023/06/28 08:42:08;;;;;;;0.80;0.30;;;;;;;;;;5053268;28;20056;-56
2023/06/28 08:44:36;;;;;;;0.93;0.40;;;;;;;;;;5053205;28;20029;-56
2023/06/28 08:47:04;;;;;;;0.50;0.30;;;;;;;;;;5053188;28;20029;-57
2023/06/28 08:49:32;;;;;;;0.65;0.30;;;;;;;;;;5053051;28;20037;-56
2023/06/28 08:51:59;;;;;;;0.60;0.40;;;;;;;;;;5053027;28;20052;-56
2023/06/28 08:54:29;;;;;;;0.52;0.40;;;;;;;;;;5052945;28;20505;-60
2023/06/28 08:56:57;;;;;;;0.40;0.40;;;;;;;;;;5052987;28;20108;-60
2023/06/28 08:59:24;;;;;;;1.00;0.30;;;;;;;;;;5052825;28;21967;-60
2023/06/28 09:01:55;;;;;;;0.70;0.32;;;;;;;;;;5052955;28;20425;-60
2023/06/28 09:04:26;;;;;;;0.25;0.22;;;;;;;;;;5052692;28;20068;-60
2023/06/28 09:06:54;;;;;;;0.75;0.30;;;;;;;;;;5052773;28;20044;-60
2023/06/28 09:09:21;;;;;;;0.28;0.28;;;;;;;;;;5052636;28;20078;-60
2023/06/28 09:11:48;;;;;;;0.47;0.30;;;;;;;;;;5052585;28;20033;-60
2023/06/28 09:14:15;;;;;;;0.57;0.30;;;;;;;;;;5052580;28;20508;-60
2023/06/28 09:16:42;;;;;;;0.65;0.35;;;;;;;;;;5052390;28;20403;-60
2023/06/28 09:19:09;;;;;;;0.85;0.32;;;;;;;;;;5052440;28;20397;-60
2023/06/28 09:21:36;;;;;;;0.25;0.22;;;;;;;;;;5044727;28;20372;-57
2023/06/28 09:24:03;;;;;;;0.50;0.30;;;;;;;;;;5048319;28;20033;-59
2023/06/28 09:26:30;;;;;;;0.57;0.40;;;;;;;;;;5072095;28;20048;-60
2023/06/28 09:29:01;;;;;;;1.27;0.30;;;;;;;;;;5072161;28;20024;-60
2023/06/28 09:31:34;;;;;;;0.17;0.17;;;;;;;;;;5071354;28;20035;-56
2023/06/28 09:34:01;;;;;;;0.63;0.40;;;;;;;;;;5047303;28;20033;-60
2023/06/28 09:36:29;;;;;;;1.58;0.30;;;;;;;;;;5036681;28;20095;-56
2023/06/28 09:38:57;;;;;;;2.03;0.30;;;;;;;;;;5039838;28;20071;-56
2023/06/28 09:41:24;;;;;;;1.17;0.28;;;;;;;;;;5037025;28;20042;-55
2023/06/28 09:43:51;;;;;;;0.60;0.20;;;;;;;;;;5033684;28;20029;-60
2023/06/28 09:46:18;;;;;;;1.90;0.30;;;;;;;;;;5032159;28;20039;-60
2023/06/28 09:48:49;;;;;;;2.03;0.30;;;;;;;;;;5031916;28;20071;-59
2023/06/28 09:51:17;;;;;;;2.60;0.30;;;;;;;;;;5030744;28;20033;-59
2023/06/28 09:53:52;;;;;;;2.15;0.40;;;;;;;;;;5031925;28;20099;-60
2023/06/28 09:56:19;;;;;;;0.35;0.30;;;;;;;;;;5031923;28;20048;-59
2023/06/28 09:58:47;;;;;;;2.78;0.30;;;;;;;;;;5031931;28;20406;-59
2023/06/28 10:01:17;;;;;;;5.28;0.60;;;;;;;;;;5031860;28;20558;-60
2023/06/28 10:03:49;;;;;;;1.38;0.40;;;;;;;;;;5031889;28;20136;-60
2023/06/28 10:06:17;;;;;;;2.42;0.40;;;;;;;;;;5031801;28;20453;-60
2023/06/28 10:08:44;;;;;;;1.83;0.38;;;;;;;;;;5031761;28;20048;-59
2023/06/28 10:11:13;;;;;;;2.05;0.40;;;;;;;;;;5031771;28;20033;-59
2023/06/28 10:13:41;;;;;;;0.38;0.25;;;;;;;;;;5031782;28;20037;-60
2023/06/28 10:16:15;;;;;;;0.43;0.30;;;;;;;;;;5031667;28;20026;-59
2023/06/28 10:18:43;;;;;;;1.17;0.38;;;;;;;;;;5031637;28;20018;-60
2023/06/28 10:21:10;;;;;;;2.55;0.47;;;;;;;;;;5031553;28;20045;-59
2023/06/28 10:23:39;;;;;;;0.70;0.30;;;;;;;;;;5031403;28;20065;-60
2023/06/28 10:26:06;;;;;;;0.63;0.30;;;;;;;;;;5031631;28;20053;-59
2023/06/28 10:28:34;;;;;;;0.85;0.40;;;;;;;;;;5031471;28;20048;-60
2023/06/28 10:31:01;;;;;;;2.15;0.25;;;;;;;;;;5030287;28;20783;-60
2023/06/28 10:33:33;;;;;;;0.63;0.30;;;;;;;;;;5031566;28;20163;-60
2023/06/28 10:36:00;;;;;;;1.23;0.25;;;;;;;;;;5032731;28;20029;-60
2023/06/28 10:38:29;;;;;;;1.23;0.30;;;;;;;;;;5035562;28;20033;-59
2023/06/28 10:40:56;;;;;;;1.08;0.40;;;;;;;;;;5035549;28;20112;-60
2023/06/28 10:43:24;;;;;;;0.52;0.35;;;;;;;;;;5035536;28;20055;-60
2023/06/28 10:45:55;;;;;;;1.30;0.45;;;;;;;;;;5035475;28;20026;-60
2023/06/28 10:48:22;;;;;;;0.60;0.30;;;;;;;;;;5035276;28;20021;-60
2023/06/28 10:50:50;;;;;;;0.43;0.35;;;;;;;;;;5035405;28;20037;-60
2023/06/28 10:53:21;;;;;;;0.95;0.35;;;;;;;;;;5037405;28;20053;-59
2023/06/28 10:56:07;;;;;;;2.55;0.60;;;;;;;;;;5055237;28;20029;-60
2023/06/28 10:58:41;;;;;;;0.80;0.20;;;;;;;;;;5054085;28;20025;-59
2023/06/28 11:01:09;;;;;;;2.88;0.43;;;;;;;;;;5053682;28;20033;-60
2023/06/28 11:03:43;;;;;;;0.80;0.30;;;;;;;;;;5054317;28;20419;-59
2023/06/28 11:06:11;;;;;;;1.67;0.40;;;;;;;;;;5054232;28;20497;-60
2023/06/28 11:08:41;;;;;;;0.47;0.30;;;;;;;;;;5053951;28;20033;-56
2023/06/28 11:11:09;;;;;;;1.50;0.40;;;;;;;;;;5054339;28;20028;-56
2023/06/28 11:13:42;;;;;;;4.25;0.55;;;;;;;;;;5054282;28;20552;-60
2023/06/28 11:16:27;;;;;;;1.80;0.32;;;;;;;;;;5052508;28;20441;-60
2023/06/28 11:18:54;;;;;;;1.05;0.35;;;;;;;;;;5052969;28;20021;-56
2023/06/28 11:21:26;;;;;;;3.53;0.60;;;;;;;;;;5030924;28;20128;-55
2023/06/28 11:23:57;;;;;;;3.15;0.50;;;;;;;;;;5023856;28;20037;-53
2023/06/28 11:26:38;;;;;;;4.18;0.70;;;;;;;;;;5042777;28;20083;-59
2023/06/28 11:29:18;;;;;;;3.40;0.70;;;;;;;;;;5047167;28;20129;-59
2023/06/28 11:31:52;;;;;;;1.45;0.50;;;;;;;;;;5034388;28;20057;-49
2023/06/28 11:34:19;;;;;;;2.60;0.60;;;;;;;;;;5032056;28;20037;-52
2023/06/28 11:36:51;;;;;;;6.22;0.98;;;;;;;;;;5028448;28;20052;-55
2023/06/28 11:39:19;;;;;;;2.77;0.60;;;;;;;;;;5048255;28;20036;-56
2023/06/28 11:41:46;;;;;;;4.18;0.70;;;;;;;;;;5053680;28;20020;-63
2023/06/28 11:44:13;;;;;;;2.88;0.60;;;;;;;;;;5054132;28;20798;-52
2023/06/28 11:46:46;;;;;;;3.35;0.60;;;;;;;;;;5051355;28;20037;-60
2023/06/28 11:49:15;;;;;;;3.60;0.85;;;;;;;;;;5049955;28;20079;-59
2023/06/28 11:51:42;;;;;;;1.40;0.43;;;;;;;;;;5053444;28;20090;-60
2023/06/28 11:54:10;;;;;;;2.08;0.57;;;;;;;;;;5053941;28;20033;-58
2023/06/28 11:56:37;;;;;;;2.08;0.70;;;;;;;;;;5053201;28;20170;-57
2023/06/28 11:59:16;;;;;;;5.07;0.60;;;;;;;;;;5048046;28;20067;-60
2023/06/28 12:01:44;;;;;;;1.33;0.57;;;;;;;;;;5052838;28;20047;-58
2023/06/28 12:04:18;;;;;;;1.48;0.50;;;;;;;;;;5053314;28;20033;-62
2023/06/28 12:06:46;;;;;;;5.00;0.60;;;;;;;;;;5052216;28;20040;-58
2023/06/28 12:09:19;;;;;;;4.05;1.25;;;;;;;;;;5050322;28;20037;-55
2023/06/28 12:11:51;;;;;;;5.97;1.33;;;;;;;;;;5053375;28;20111;-48
2023/06/28 12:14:20;;;;;;;8.10;1.00;;;;;;;;;;5053200;28;20033;-48
2023/06/28 12:16:48;;;;;;;6.03;0.98;;;;;;;;;;5053250;28;20487;-49
2023/06/28 12:19:18;;;;;;;2.08;0.80;;;;;;;;;;5049994;28;20458;-50
2023/06/28 12:21:46;;;;;;;9.38;0.95;;;;;;;;;;5050466;28;20410;-49
2023/06/28 12:24:13;;;;;;;4.03;0.80;;;;;;;;;;5044994;28;20372;-47
2023/06/28 12:26:40;;;;;;;5.78;1.10;;;;;;;;;;5049194;28;20099;-52
2023/06/28 12:29:07;;;;;;;5.95;0.93;;;;;;;;;;5043988;28;20018;-51
2023/06/28 12:31:46;;;;;;;3.85;0.90;;;;;;;;;;5034722;28;20471;-51
2023/06/28 12:34:26;;;;;;;4.40;1.15;;;;;;;;;;5038465;28;20041;-54
2023/06/28 12:36:56;;;;;;;5.72;0.93;;;;;;;;;;5033090;28;20041;-53
2023/06/28 12:39:28;;;;;;;2.10;0.77;;;;;;;;;;5033062;28;20813;-51
2023/06/28 12:42:05;;;;;;;5.95;0.73;;;;;;;;;;5033211;28;20039;-55
2023/06/28 12:44:50;;;;;;;4.22;1.00;;;;;;;;;;5033357;28;20029;-53
2023/06/28 12:47:21;;;;;;;1.73;0.85;;;;;;;;;;5033231;28;20432;-56
2023/06/28 12:49:48;;;;;;;3.85;0.80;;;;;;;;;;5033257;28;20514;-56
2023/06/28 12:52:16;;;;;;;3.22;0.80;;;;;;;;;;5033181;28;20025;-54
2023/06/28 12:54:43;;;;;;;3.38;0.60;;;;;;;;;;5033159;28;20056;-53
2023/06/28 12:57:10;;;;;;;4.03;0.88;;;;;;;;;;5033001;28;20057;-56
2023/06/28 12:59:37;;;;;;;4.47;0.98;;;;;;;;;;5031959;28;20117;-53
2023/06/28 13:02:04;;;;;;;4.18;0.88;;;;;;;;;;5032975;28;20034;-55
2023/06/28 13:04:34;;;;;;;1.98;0.80;;;;;;;;;;5032930;28;20022;-55
2023/06/28 13:07:02;;;;;;;2.40;0.60;;;;;;;;;;5032946;28;20506;-54
2023/06/28 13:09:29;;;;;;;4.15;0.70;;;;;;;;;;5032844;28;20377;-54
2023/06/28 13:11:56;;;;;;;2.40;0.70;;;;;;;;;;5032850;28;20032;-56
2023/06/28 13:14:23;;;;;;;3.53;0.70;;;;;;;;;;5032695;28;20053;-55
2023/06/28 13:16:50;;;;;;;3.17;0.77;;;;;;;;;;5032714;28;20130;-53
2023/06/28 13:19:17;;;;;;;2.63;0.68;;;;;;;;;;5032552;28;20079;-55
2023/06/28 13:21:51;;;;;;;6.63;0.80;;;;;;;;;;5032452;28;20037;-55
2023/06/28 13:24:18;;;;;;;3.13;0.80;;;;;;;;;;5032631;28;20021;-52
2023/06/28 13:26:45;;;;;;;4.22;0.80;;;;;;;;;;5032555;28;20021;-55
2023/06/28 13:29:15;;;;;;;5.20;1.00;;;;;;;;;;5032431;28;20030;-54
2023/06/28 13:31:43;;;;;;;1.77;0.77;;;;;;;;;;5032382;28;20040;-55
2023/06/28 13:34:10;;;;;;;2.45;1.13;;;;;;;;;;5032358;28;20065;-52
2023/06/28 13:36:37;;;;;;;2.17;0.90;;;;;;;;;;5032273;28;20045;-54
2023/06/28 13:39:04;;;;;;;2.67;0.68;;;;;;;;;;5032216;28;20029;-53
2023/06/28 13:41:31;;;;;;;1.33;0.75;;;;;;;;;;5032189;28;20029;-55
2023/06/28 13:43:58;;;;;;;2.47;0.98;;;;;;;;;;5032265;28;20026;-54
2023/06/28 13:46:25;;;;;;;1.52;0.60;;;;;;;;;;5032142;28;20054;-55
2023/06/28 13:48:53;;;;;;;2.05;0.80;;;;;;;;;;5032058;28;20108;-55
2023/06/28 13:51:20;;;;;;;1.85;0.80;;;;;;;;;;5031986;28;20167;-54
2023/06/28 13:53:47;;;;;;;2.40;0.80;;;;;;;;;;5031954;28;20040;-52
2023/06/28 13:56:14;;;;;;;1.15;0.60;;;;;;;;;;5032060;28;20083;-50
2023/06/28 13:58:41;;;;;;;1.45;0.60;;;;;;;;;;5031895;28;20025;-56
2023/06/28 14:01:08;;;;;;;7.78;1.05;;;;;;;;;;5031923;28;20500;-56
2023/06/28 14:03:35;;;;;;;2.42;0.70;;;;;;;;;;5031910;28;20034;-55
2023/06/28 14:06:02;;;;;;;4.13;0.80;;;;;;;;;;5031889;28;20487;-55
2023/06/28 14:08:29;;;;;;;3.20;0.80;;;;;;;;;;5031766;28;20033;-55
2023/06/28 14:10:56;;;;;;;2.28;0.70;;;;;;;;;;5031526;28;20056;-56
2023/06/28 14:13:23;;;;;;;1.85;0.55;;;;;;;;;;5031789;28;20040;-55
2023/06/28 14:15:50;;;;;;;2.03;0.80;;;;;;;;;;5031739;28;20033;-56
2023/06/28 14:18:17;;;;;;;3.67;0.80;;;;;;;;;;5031633;28;20395;-55
2023/06/28 14:20:44;;;;;;;2.30;0.68;;;;;;;;;;5031502;28;20116;-54
2023/06/28 14:23:16;;;;;;;2.08;0.80;;;;;;;;;;5031362;28;20060;-54
2023/06/28 14:25:44;;;;;;;2.05;0.75;;;;;;;;;;5031615;28;20559;-56
2023/06/28 14:28:12;;;;;;;1.27;0.60;;;;;;;;;;5031464;28;20042;-55
2023/06/28 14:30:39;;;;;;;1.33;0.57;;;;;;;;;;5031634;28;20030;-55
2023/06/28 14:33:06;;;;;;;2.42;0.77;;;;;;;;;;5031559;28;20033;-56
2023/06/28 14:35:33;;;;;;;1.50;0.60;;;;;;;;;;5031573;28;20033;-55
2023/06/28 14:38:02;;;;;;;0.77;0.47;;;;;;;;;;5031405;28;20038;-56
2023/06/28 14:40:30;;;;;;;2.25;0.70;;;;;;;;;;5031443;28;20434;-53
2023/06/28 14:42:57;;;;;;;1.50;0.50;;;;;;;;;;5031534;28;20025;-56
2023/06/28 14:45:24;;;;;;;0.93;0.50;;;;;;;;;;5031434;28;20025;-54